createdAt,value
2016-03-23T00:00:14.606Z,0
2016-03-23T00:01:14.610Z,0
2016-03-23T00:02:14.596Z,0
2016-03-23T00:03:14.584Z,0
2016-03-23T00:04:14.601Z,0
2016-03-23T00:05:14.589Z,0
2016-03-23T00:06:14.591Z,0
2016-03-23T00:07:14.579Z,0
2016-03-23T00:08:14.597Z,0
2016-03-23T00:09:14.599Z,0
2016-03-23T00:10:14.602Z,0
2016-03-23T00:11:14.589Z,0
2016-03-23T00:12:14.592Z,0
2016-03-23T00:13:13.844Z,0
2016-03-23T00:14:14.597Z,0
2016-03-23T00:15:14.600Z,0
2016-03-23T00:16:14.586Z,0
2016-03-23T00:17:14.590Z,0
2016-03-23T00:18:14.577Z,0
2016-03-23T00:19:14.611Z,0
2016-03-23T00:20:14.582Z,0
2016-03-23T00:21:14.632Z,0
2016-03-23T00:22:14.697Z,0
2016-03-23T00:23:14.590Z,0
2016-03-23T00:24:14.578Z,0
2016-03-23T00:25:14.580Z,0
2016-03-23T00:26:14.583Z,0
2016-03-23T00:27:14.601Z,0
2016-03-23T00:28:14.635Z,0
2016-03-23T00:29:17.607Z,0
2016-03-23T00:30:14.612Z,0
2016-03-23T00:31:14.584Z,0
2016-03-23T00:32:14.586Z,0
2016-03-23T00:33:14.574Z,0
2016-03-23T00:34:14.591Z,0
2016-03-23T00:35:14.579Z,0
2016-03-23T00:36:14.596Z,0
2016-03-23T00:37:14.568Z,0
2016-03-23T00:38:14.587Z,0
2016-03-23T00:39:14.574Z,0
2016-03-23T00:40:14.592Z,0
2016-03-23T00:41:14.579Z,0
2016-03-23T00:42:14.567Z,0
2016-03-23T00:43:14.569Z,0
2016-03-23T00:44:14.572Z,0
2016-03-23T00:45:14.574Z,0
2016-03-23T00:46:14.561Z,0
2016-03-23T00:47:14.595Z,0
2016-03-23T00:48:14.566Z,0
2016-03-23T00:49:14.586Z,0
2016-03-23T00:50:14.556Z,0
2016-03-23T00:51:14.606Z,0
2016-03-23T00:52:14.578Z,0
2016-03-23T00:53:14.580Z,0
2016-03-23T00:54:14.567Z,0
2016-03-23T00:55:14.554Z,0
2016-03-23T00:56:14.558Z,0
2016-03-23T00:57:14.575Z,0
2016-03-23T00:58:14.562Z,0
2016-03-23T00:59:14.580Z,0
2016-03-23T01:00:14.568Z,0
2016-03-23T01:01:14.555Z,0
2016-03-23T01:02:14.574Z,0
2016-03-23T01:03:14.561Z,0
2016-03-23T01:04:14.579Z,0
2016-03-23T01:05:14.549Z,0
2016-03-23T01:06:14.552Z,0
2016-03-23T01:07:14.259Z,0
2016-03-23T01:08:14.573Z,0
2016-03-23T01:09:14.560Z,0
2016-03-23T01:10:14.594Z,0
2016-03-23T01:11:14.566Z,0
2016-03-23T01:12:14.600Z,0
2016-03-23T01:13:14.540Z,0
2016-03-23T01:14:14.559Z,0
2016-03-23T01:15:14.561Z,0
2016-03-23T01:16:14.564Z,0
2016-03-23T01:17:14.551Z,0
2016-03-23T01:18:14.554Z,0
2016-03-23T01:19:14.541Z,0
2016-03-23T01:20:15.746Z,0
2016-03-23T01:21:14.578Z,0
2016-03-23T01:22:14.392Z,0
2016-03-23T01:23:14.552Z,0
2016-03-23T01:24:14.570Z,0
2016-03-23T01:25:14.603Z,0
2016-03-23T01:26:14.560Z,0
2016-03-23T01:27:14.563Z,0
2016-03-23T01:28:14.550Z,0
2016-03-23T01:29:14.536Z,0
2016-03-23T01:30:14.570Z,0
2016-03-23T01:31:14.558Z,0
2016-03-23T01:32:14.607Z,0
2016-03-23T01:33:14.532Z,0
2016-03-23T01:34:14.550Z,0
2016-03-23T01:35:14.538Z,0
2016-03-23T01:36:14.571Z,0
2016-03-23T01:37:14.526Z,0
2016-03-23T01:38:14.529Z,0
2016-03-23T01:39:14.548Z,0
2016-03-23T01:40:14.535Z,0
2016-03-23T01:41:14.537Z,0
2016-03-23T01:42:14.540Z,0
2016-03-23T01:43:14.527Z,0
2016-03-23T01:44:14.529Z,0
2016-03-23T01:45:14.532Z,0
2016-03-23T01:46:14.582Z,0
2016-03-23T01:47:14.522Z,0
2016-03-23T01:48:14.525Z,0
2016-03-23T01:49:14.543Z,0
2016-03-23T01:50:14.530Z,0
2016-03-23T01:51:14.533Z,0
2016-03-23T01:52:14.536Z,0
2016-03-23T01:53:14.523Z,0
2016-03-23T01:54:14.556Z,0
2016-03-23T01:55:14.544Z,0
2016-03-23T01:56:14.531Z,0
2016-03-23T01:57:14.580Z,0
2016-03-23T01:58:14.536Z,0
2016-03-23T01:59:14.616Z,0
2016-03-23T02:00:14.527Z,0
2016-03-23T02:01:14.544Z,0
2016-03-23T02:02:14.531Z,0
2016-03-23T02:03:14.535Z,0
2016-03-23T02:04:14.521Z,0
2016-03-23T02:05:14.524Z,0
2016-03-23T02:06:14.527Z,0
2016-03-23T02:07:14.514Z,0
2016-03-23T02:08:14.662Z,0
2016-03-23T02:09:14.688Z,0
2016-03-23T02:10:14.360Z,0
2016-03-23T02:11:15.021Z,0
2016-03-23T02:12:14.453Z,0
2016-03-23T02:13:14.457Z,0
2016-03-23T02:14:14.818Z,0
2016-03-23T02:15:14.462Z,0
2016-03-23T02:16:14.464Z,0
2016-03-23T02:17:14.467Z,0
2016-03-23T02:18:14.470Z,0
2016-03-23T02:19:14.472Z,0
2016-03-23T02:20:14.475Z,0
2016-03-23T02:21:14.453Z,0
2016-03-23T02:22:14.487Z,0
2016-03-23T02:23:14.458Z,0
2016-03-23T02:24:14.445Z,0
2016-03-23T02:25:14.447Z,0
2016-03-23T02:26:14.435Z,0
2016-03-23T02:27:14.437Z,0
2016-03-23T02:28:14.439Z,0
2016-03-23T02:29:14.474Z,0
2016-03-23T02:30:14.445Z,0
2016-03-23T02:31:14.463Z,0
2016-03-23T02:32:14.436Z,0
2016-03-23T02:33:14.438Z,0
2016-03-23T02:34:14.425Z,0
2016-03-23T02:35:14.427Z,0
2016-03-23T02:36:14.430Z,0
2016-03-23T02:37:14.418Z,0
2016-03-23T02:38:14.435Z,0
2016-03-23T02:39:14.423Z,0
2016-03-23T02:40:14.425Z,0
2016-03-23T02:41:14.429Z,0
2016-03-23T02:42:14.415Z,0
2016-03-23T02:43:14.434Z,0
2016-03-23T02:44:14.515Z,0
2016-03-23T02:45:14.470Z,0
2016-03-23T02:46:14.442Z,0
2016-03-23T02:47:14.428Z,0
2016-03-23T02:48:14.432Z,0
2016-03-23T02:49:14.418Z,0
2016-03-23T02:50:14.437Z,0
2016-03-23T02:51:14.423Z,0
2016-03-23T02:52:14.426Z,0
2016-03-23T02:53:14.429Z,0
2016-03-23T02:54:14.431Z,0
2016-03-23T02:55:14.420Z,0
2016-03-23T02:56:14.422Z,0
2016-03-23T02:57:14.425Z,0
2016-03-23T02:58:14.412Z,0
2016-03-23T02:59:14.617Z,0
2016-03-23T03:00:14.433Z,0
2016-03-23T03:01:14.435Z,0
2016-03-23T03:02:14.406Z,0
2016-03-23T03:03:14.441Z,0
2016-03-23T03:04:14.411Z,0
2016-03-23T03:05:14.399Z,0
2016-03-23T03:06:14.402Z,0
2016-03-23T03:07:14.436Z,0
2016-03-23T03:08:14.407Z,0
2016-03-23T03:09:14.410Z,0
2016-03-23T03:10:14.413Z,0
2016-03-23T03:11:14.416Z,0
2016-03-23T03:12:14.465Z,0
2016-03-23T03:13:14.420Z,0
2016-03-23T03:14:14.313Z,0
2016-03-23T03:15:14.395Z,0
2016-03-23T03:16:14.412Z,0
2016-03-23T03:17:14.401Z,0
2016-03-23T03:18:14.403Z,0
2016-03-23T03:19:14.405Z,0
2016-03-23T03:20:14.392Z,0
2016-03-23T03:21:14.395Z,0
2016-03-23T03:22:14.398Z,0
2016-03-23T03:23:14.384Z,0
2016-03-23T03:24:14.419Z,0
2016-03-23T03:25:14.406Z,0
2016-03-23T03:26:14.392Z,0
2016-03-23T03:27:14.380Z,0
2016-03-23T03:28:14.383Z,0
2016-03-23T03:29:14.511Z,0
2016-03-23T03:30:14.419Z,0
2016-03-23T03:31:14.423Z,0
2016-03-23T03:32:14.394Z,0
2016-03-23T03:33:14.413Z,0
2016-03-23T03:34:14.400Z,0
2016-03-23T03:35:14.839Z,0
2016-03-23T03:36:14.373Z,0
2016-03-23T03:37:14.376Z,0
2016-03-23T03:38:14.395Z,0
2016-03-23T03:39:14.381Z,0
2016-03-23T03:40:14.384Z,0
2016-03-23T03:41:14.387Z,0
2016-03-23T03:42:14.374Z,0
2016-03-23T03:43:14.393Z,0
2016-03-23T03:44:14.302Z,0
2016-03-23T03:45:14.367Z,0
2016-03-23T03:46:14.385Z,0
2016-03-23T03:47:14.388Z,0
2016-03-23T03:48:14.391Z,0
2016-03-23T03:49:14.377Z,0
2016-03-23T03:50:14.380Z,0
2016-03-23T03:51:14.383Z,0
2016-03-23T03:52:14.385Z,0
2016-03-23T03:53:14.388Z,0
2016-03-23T03:54:14.376Z,0
2016-03-23T03:55:14.363Z,0
2016-03-23T03:56:14.365Z,0
2016-03-23T03:57:14.368Z,0
2016-03-23T03:58:14.355Z,0
2016-03-23T03:59:14.451Z,0
2016-03-23T04:00:14.360Z,0
2016-03-23T04:01:14.379Z,0
2016-03-23T04:02:14.365Z,0
2016-03-23T04:03:14.384Z,0
2016-03-23T04:04:14.371Z,0
2016-03-23T04:05:14.218Z,0
2016-03-23T04:06:14.376Z,0
2016-03-23T04:07:14.379Z,0
2016-03-23T04:08:14.413Z,0
2016-03-23T04:09:14.353Z,0
2016-03-23T04:10:14.356Z,0
2016-03-23T04:11:14.202Z,0
2016-03-23T04:12:14.190Z,0
2016-03-23T04:13:14.348Z,0
2016-03-23T04:14:14.758Z,0
2016-03-23T04:15:14.353Z,0
2016-03-23T04:16:14.356Z,0
2016-03-23T04:17:14.359Z,0
2016-03-23T04:18:14.205Z,0
2016-03-23T04:19:14.364Z,0
2016-03-23T04:20:14.366Z,0
2016-03-23T04:21:14.369Z,0
2016-03-23T04:22:14.357Z,0
2016-03-23T04:23:14.359Z,0
2016-03-23T04:24:14.362Z,0
2016-03-23T04:25:14.349Z,0
2016-03-23T04:26:14.367Z,0
2016-03-23T04:27:14.354Z,0
2016-03-23T04:28:14.342Z,0
2016-03-23T04:29:14.344Z,0
2016-03-23T04:30:14.347Z,0
2016-03-23T04:31:14.350Z,0
2016-03-23T04:32:14.353Z,0
2016-03-23T04:33:14.370Z,0
2016-03-23T04:34:14.342Z,0
2016-03-23T04:35:14.345Z,0
2016-03-23T04:36:14.378Z,0
2016-03-23T04:37:14.350Z,0
2016-03-23T04:38:14.337Z,0
2016-03-23T04:39:14.340Z,0
2016-03-23T04:40:14.358Z,0
2016-03-23T04:41:14.361Z,0
2016-03-23T04:42:14.333Z,0
2016-03-23T04:43:14.383Z,0
2016-03-23T04:44:14.260Z,0
2016-03-23T04:45:14.169Z,0
2016-03-23T04:46:14.344Z,0
2016-03-23T04:47:14.330Z,0
2016-03-23T04:48:14.192Z,0
2016-03-23T04:49:14.320Z,0
2016-03-23T04:50:14.198Z,0
2016-03-23T04:51:14.325Z,0
2016-03-23T04:52:14.343Z,0
2016-03-23T04:53:14.316Z,0
2016-03-23T04:54:14.333Z,0
2016-03-23T04:55:14.305Z,0
2016-03-23T04:56:14.183Z,0
2016-03-23T04:57:14.326Z,0
2016-03-23T04:58:14.344Z,0
2016-03-23T04:59:14.378Z,0
2016-03-23T05:00:14.350Z,0
2016-03-23T05:01:14.306Z,0
2016-03-23T05:02:14.340Z,0
2016-03-23T05:03:14.311Z,0
2016-03-23T05:04:14.314Z,0
2016-03-23T05:05:14.378Z,0
2016-03-23T05:06:14.320Z,0
2016-03-23T05:07:14.306Z,0
2016-03-23T05:08:14.309Z,0
2016-03-23T05:09:14.327Z,0
2016-03-23T05:10:14.298Z,0
2016-03-23T05:11:14.333Z,0
2016-03-23T05:12:14.303Z,0
2016-03-23T05:13:14.306Z,0
2016-03-23T05:14:14.324Z,0
2016-03-23T05:15:14.297Z,0
2016-03-23T05:16:14.296Z,0
2016-03-23T05:17:14.289Z,0
2016-03-23T05:18:14.281Z,0
2016-03-23T05:19:14.273Z,0
2016-03-23T05:20:14.266Z,0
2016-03-23T05:21:14.260Z,0
2016-03-23T05:22:14.259Z,0
2016-03-23T05:23:14.242Z,0
2016-03-23T05:24:14.241Z,0
2016-03-23T05:25:14.241Z,0
2016-03-23T05:26:14.210Z,0
2016-03-23T05:27:14.226Z,0
2016-03-23T05:28:14.212Z,0
2016-03-23T05:29:14.463Z,0
2016-03-23T05:30:14.245Z,0
2016-03-23T05:31:14.215Z,0
2016-03-23T05:32:14.077Z,0
2016-03-23T05:33:14.221Z,0
2016-03-23T05:34:14.207Z,0
2016-03-23T05:35:14.240Z,0
2016-03-23T05:36:14.228Z,0
2016-03-23T05:37:14.214Z,0
2016-03-23T05:38:14.202Z,0
2016-03-23T05:39:14.219Z,0
2016-03-23T05:40:14.222Z,0
2016-03-23T05:41:14.210Z,0
2016-03-23T05:42:14.212Z,0
2016-03-23T05:43:14.199Z,0
2016-03-23T05:44:14.217Z,0
2016-03-23T05:45:14.204Z,0
2016-03-23T05:46:14.191Z,0
2016-03-23T05:47:14.194Z,0
2016-03-23T05:48:14.213Z,0
2016-03-23T05:49:14.199Z,0
2016-03-23T05:50:14.202Z,0
2016-03-23T05:51:14.204Z,0
2016-03-23T05:52:14.192Z,0
2016-03-23T05:53:14.226Z,0
2016-03-23T05:54:14.198Z,0
2016-03-23T05:55:14.200Z,0
2016-03-23T05:56:14.188Z,0
2016-03-23T05:57:14.190Z,0
2016-03-23T05:58:14.177Z,0
2016-03-23T05:59:14.180Z,0
2016-03-23T06:00:14.198Z,0
2016-03-23T06:01:14.185Z,0
2016-03-23T06:02:14.187Z,0
2016-03-23T06:03:14.190Z,0
2016-03-23T06:04:14.178Z,0
2016-03-23T06:05:14.195Z,0
2016-03-23T06:06:14.198Z,0
2016-03-23T06:07:14.199Z,0
2016-03-23T06:08:14.176Z,0
2016-03-23T06:09:14.195Z,0
2016-03-23T06:10:14.182Z,0
2016-03-23T06:11:14.169Z,0
2016-03-23T06:12:14.187Z,0
2016-03-23T06:13:14.174Z,0
2016-03-23T06:14:14.193Z,0
2016-03-23T06:15:14.008Z,0
2016-03-23T06:16:14.167Z,0
2016-03-23T06:17:14.169Z,0
2016-03-23T06:18:14.187Z,0
2016-03-23T06:19:14.175Z,0
2016-03-23T06:20:14.178Z,0
2016-03-23T06:21:14.165Z,0
2016-03-23T06:22:14.167Z,0
2016-03-23T06:23:14.170Z,0
2016-03-23T06:24:14.172Z,0
2016-03-23T06:25:14.175Z,0
2016-03-23T06:26:14.178Z,0
2016-03-23T06:27:14.181Z,0
2016-03-23T06:28:14.168Z,0
2016-03-23T06:29:14.171Z,0
2016-03-23T06:30:14.173Z,0
2016-03-23T06:31:14.160Z,0
2016-03-23T06:32:14.163Z,0
2016-03-23T06:33:14.166Z,0
2016-03-23T06:34:14.169Z,0
2016-03-23T06:35:14.171Z,0
2016-03-23T06:36:14.174Z,0
2016-03-23T06:37:14.176Z,0
2016-03-23T06:38:14.148Z,0
2016-03-23T06:39:14.135Z,0
2016-03-23T06:40:14.137Z,0
2016-03-23T06:41:14.140Z,0
2016-03-23T06:42:14.173Z,0
2016-03-23T06:43:14.161Z,0
2016-03-23T06:44:14.148Z,0
2016-03-23T06:45:14.151Z,0
2016-03-23T06:46:14.138Z,0
2016-03-23T06:47:14.140Z,0
2016-03-23T06:48:14.159Z,0
2016-03-23T06:49:14.145Z,0
2016-03-23T06:50:14.164Z,0
2016-03-23T06:51:14.167Z,0
2016-03-23T06:52:14.153Z,0
2016-03-23T06:53:14.156Z,0
2016-03-23T06:54:14.159Z,0
2016-03-23T06:55:14.147Z,0
2016-03-23T06:56:14.150Z,0
2016-03-23T06:57:14.153Z,0
2016-03-23T06:58:14.139Z,0
2016-03-23T06:59:14.142Z,0
2016-03-23T07:00:14.130Z,0
2016-03-23T07:01:14.147Z,0
2016-03-23T07:02:14.135Z,0
2016-03-23T07:03:14.138Z,0
2016-03-23T07:04:14.140Z,0
2016-03-23T07:05:14.127Z,0
2016-03-23T07:06:14.145Z,0
2016-03-23T07:07:14.132Z,0
2016-03-23T07:08:14.134Z,0
2016-03-23T07:09:14.138Z,0
2016-03-23T07:10:14.124Z,0
2016-03-23T07:11:14.143Z,5
2016-03-23T07:12:14.130Z,5
2016-03-23T07:13:14.148Z,5
2016-03-23T07:14:14.135Z,5
2016-03-23T07:15:14.122Z,5
2016-03-23T07:16:14.125Z,5
2016-03-23T07:17:14.128Z,5
2016-03-23T07:18:14.114Z,0
2016-03-23T07:19:14.133Z,0
2016-03-23T07:20:14.120Z,5
2016-03-23T07:21:14.122Z,5
2016-03-23T07:22:14.125Z,5
2016-03-23T07:23:14.112Z,5
2016-03-23T07:24:14.115Z,5
2016-03-23T07:25:14.118Z,5
2016-03-23T07:26:14.136Z,5
2016-03-23T07:27:14.123Z,5
2016-03-23T07:28:14.125Z,5
2016-03-23T07:29:14.128Z,5
2016-03-23T07:30:14.116Z,0
2016-03-23T07:31:14.103Z,5
2016-03-23T07:32:14.121Z,0
2016-03-23T07:33:14.108Z,0
2016-03-23T07:34:14.127Z,0
2016-03-23T07:35:14.113Z,0
2016-03-23T07:36:14.116Z,0
2016-03-23T07:37:14.150Z,0
2016-03-23T07:38:14.137Z,0
2016-03-23T07:39:14.109Z,0
2016-03-23T07:40:14.126Z,0
2016-03-23T07:41:14.129Z,0
2016-03-23T07:42:14.117Z,0
2016-03-23T07:43:14.103Z,0
2016-03-23T07:44:14.107Z,0
2016-03-23T07:45:14.093Z,0
2016-03-23T07:46:14.096Z,0
2016-03-23T07:47:14.115Z,0
2016-03-23T07:48:14.101Z,0
2016-03-23T07:49:13.948Z,0
2016-03-23T07:50:14.123Z,0
2016-03-23T07:51:14.109Z,0
2016-03-23T07:52:14.097Z,0
2016-03-23T07:53:14.099Z,0
2016-03-23T07:54:14.102Z,0
2016-03-23T07:55:14.105Z,0
2016-03-23T07:56:14.107Z,5
2016-03-23T07:57:14.111Z,0
2016-03-23T07:58:14.097Z,0
2016-03-23T07:59:14.116Z,5
2016-03-23T08:00:14.086Z,0
2016-03-23T08:01:14.105Z,5
2016-03-23T08:02:14.108Z,5
2016-03-23T08:03:14.095Z,5
2016-03-23T08:04:13.380Z,10
2016-03-23T08:05:14.100Z,5
2016-03-23T08:06:14.088Z,10
2016-03-23T08:07:14.090Z,5
2016-03-23T08:08:14.093Z,5
2016-03-23T08:09:14.080Z,10
2016-03-23T08:10:14.098Z,5
2016-03-23T08:11:14.101Z,5
2016-03-23T08:12:14.087Z,10
2016-03-23T08:13:14.106Z,10
2016-03-23T08:14:14.109Z,5
2016-03-23T08:15:14.112Z,10
2016-03-23T08:16:14.098Z,5
2016-03-23T08:17:14.117Z,10
2016-03-23T08:18:14.120Z,5
2016-03-23T08:19:14.091Z,5
2016-03-23T08:20:14.110Z,5
2016-03-23T08:21:14.112Z,10
2016-03-23T08:22:14.084Z,5
2016-03-23T08:23:14.117Z,0
2016-03-23T08:24:14.089Z,5
2016-03-23T08:25:14.076Z,5
2016-03-23T08:26:14.094Z,5
2016-03-23T08:27:14.081Z,5
2016-03-23T08:28:14.084Z,5
2016-03-23T08:29:14.086Z,5
2016-03-23T08:30:13.715Z,10
2016-03-23T08:31:14.108Z,10
2016-03-23T08:32:14.095Z,10
2016-03-23T08:33:14.113Z,5
2016-03-23T08:34:14.100Z,10
2016-03-23T08:35:14.119Z,5
2016-03-23T08:36:14.105Z,10
2016-03-23T08:37:14.093Z,5
2016-03-23T08:38:14.095Z,5
2016-03-23T08:39:13.927Z,5
2016-03-23T08:40:14.148Z,10
2016-03-23T08:41:14.072Z,5
2016-03-23T08:42:14.091Z,10
2016-03-23T08:43:14.077Z,5
2016-03-23T08:44:13.939Z,5
2016-03-23T08:45:14.271Z,5
2016-03-23T08:46:14.085Z,10
2016-03-23T08:47:14.088Z,5
2016-03-23T08:48:14.090Z,5
2016-03-23T08:49:14.078Z,10
2016-03-23T08:50:14.143Z,10
2016-03-23T08:51:14.098Z,10
2016-03-23T08:52:14.102Z,5
2016-03-23T08:53:14.089Z,10
2016-03-23T08:54:14.091Z,5
2016-03-23T08:55:14.094Z,5
2016-03-23T08:56:14.081Z,5
2016-03-23T08:57:14.084Z,5
2016-03-23T08:58:14.086Z,5
2016-03-23T08:59:14.089Z,5
2016-03-23T09:00:14.186Z,5
2016-03-23T09:01:14.110Z,5
2016-03-23T09:02:14.098Z,0
2016-03-23T09:03:14.085Z,5
2016-03-23T09:04:14.103Z,0
2016-03-23T09:05:14.105Z,0
2016-03-23T09:06:14.093Z,0
2016-03-23T09:07:14.096Z,5
2016-03-23T09:08:14.113Z,0
2016-03-23T09:09:14.085Z,0
2016-03-23T09:10:14.071Z,0
2016-03-23T09:11:14.075Z,0
2016-03-23T09:12:14.077Z,0
2016-03-23T09:13:14.080Z,0
2016-03-23T09:14:14.082Z,5
2016-03-23T09:15:14.492Z,0
2016-03-23T09:16:14.104Z,0
2016-03-23T09:17:14.107Z,0
2016-03-23T09:18:14.093Z,0
2016-03-23T09:19:14.096Z,5
2016-03-23T09:20:14.098Z,5
2016-03-23T09:21:14.086Z,0
2016-03-23T09:22:14.089Z,0
2016-03-23T09:23:14.091Z,0
2016-03-23T09:24:14.095Z,0
2016-03-23T09:25:14.097Z,0
2016-03-23T09:26:14.099Z,0
2016-03-23T09:27:14.086Z,0
2016-03-23T09:28:14.089Z,0
2016-03-23T09:29:14.092Z,0
2016-03-23T09:30:14.219Z,0
2016-03-23T09:31:14.097Z,5
2016-03-23T09:32:14.100Z,5
2016-03-23T09:33:14.118Z,5
2016-03-23T09:34:14.106Z,0
2016-03-23T09:35:14.092Z,5
2016-03-23T09:36:14.110Z,5
2016-03-23T09:37:14.097Z,5
2016-03-23T09:38:14.100Z,5
2016-03-23T09:39:14.103Z,5
2016-03-23T09:40:14.105Z,5
2016-03-23T09:41:14.108Z,5
2016-03-23T09:42:14.096Z,0
2016-03-23T09:43:14.082Z,0
2016-03-23T09:44:14.102Z,5
2016-03-23T09:45:14.182Z,5
2016-03-23T09:46:14.107Z,5
2016-03-23T09:47:14.094Z,0
2016-03-23T09:48:14.096Z,0
2016-03-23T09:49:14.099Z,0
2016-03-23T09:50:14.117Z,0
2016-03-23T09:51:14.103Z,0
2016-03-23T09:52:14.091Z,0
2016-03-23T09:53:14.109Z,0
2016-03-23T09:54:14.097Z,0
2016-03-23T09:55:14.100Z,5
2016-03-23T09:56:14.118Z,5
2016-03-23T09:57:14.105Z,5
2016-03-23T09:58:14.091Z,5
2016-03-23T09:59:14.095Z,5
2016-03-23T10:00:14.159Z,5
2016-03-23T10:01:14.099Z,5
2016-03-23T10:02:14.102Z,5
2016-03-23T10:03:14.105Z,5
2016-03-23T10:04:14.092Z,0
2016-03-23T10:05:14.095Z,5
2016-03-23T10:06:14.097Z,5
2016-03-23T10:07:14.100Z,5
2016-03-23T10:08:14.118Z,5
2016-03-23T10:09:14.091Z,5
2016-03-23T10:10:14.093Z,0
2016-03-23T10:11:14.096Z,0
2016-03-23T10:12:14.082Z,0
2016-03-23T10:13:14.116Z,0
2016-03-23T10:14:14.119Z,0
2016-03-23T10:15:13.981Z,0
2016-03-23T10:16:14.125Z,0
2016-03-23T10:17:14.112Z,0
2016-03-23T10:18:14.114Z,0
2016-03-23T10:19:14.102Z,0
2016-03-23T10:20:14.120Z,0
2016-03-23T10:21:14.091Z,0
2016-03-23T10:22:14.093Z,0
2016-03-23T10:23:14.096Z,0
2016-03-23T10:24:14.208Z,0
2016-03-23T10:25:14.087Z,0
2016-03-23T10:26:14.089Z,0
2016-03-23T10:27:14.122Z,0
2016-03-23T10:28:14.094Z,0
2016-03-23T10:29:14.097Z,0
2016-03-23T10:30:14.303Z,0
2016-03-23T10:31:14.117Z,0
2016-03-23T10:32:14.105Z,0
2016-03-23T10:33:14.123Z,0
2016-03-23T10:34:14.125Z,0
2016-03-23T10:35:14.114Z,0
2016-03-23T10:36:14.131Z,0
2016-03-23T10:37:14.149Z,0
2016-03-23T10:38:14.105Z,0
2016-03-23T10:39:14.108Z,0
2016-03-23T10:40:14.111Z,0
2016-03-23T10:41:14.098Z,0
2016-03-23T10:42:14.085Z,0
2016-03-23T10:43:14.104Z,0
2016-03-23T10:44:14.106Z,0
2016-03-23T10:45:14.219Z,0
2016-03-23T10:46:14.127Z,0
2016-03-23T10:47:14.130Z,0
2016-03-23T10:48:14.117Z,0
2016-03-23T10:49:14.135Z,0
2016-03-23T10:50:14.106Z,0
2016-03-23T10:51:14.109Z,0
2016-03-23T10:52:14.143Z,0
2016-03-23T10:53:14.114Z,0
2016-03-23T10:54:14.383Z,0
2016-03-23T10:55:14.120Z,0
2016-03-23T10:56:14.107Z,0
2016-03-23T10:57:14.109Z,0
2016-03-23T10:58:14.097Z,0
2016-03-23T10:59:14.115Z,0
2016-03-23T11:00:14.289Z,0
2016-03-23T11:01:14.125Z,0
2016-03-23T11:02:14.113Z,0
2016-03-23T11:03:14.116Z,0
2016-03-23T11:04:14.118Z,0
2016-03-23T11:05:14.105Z,0
2016-03-23T11:06:14.123Z,0
2016-03-23T11:07:14.188Z,0
2016-03-23T11:08:14.129Z,0
2016-03-23T11:09:14.116Z,0
2016-03-23T11:10:13.993Z,0
2016-03-23T11:11:14.105Z,0
2016-03-23T11:12:14.124Z,0
2016-03-23T11:13:14.126Z,0
2016-03-23T11:14:14.113Z,0
2016-03-23T11:15:14.131Z,0
2016-03-23T11:16:14.119Z,0
2016-03-23T11:17:14.137Z,0
2016-03-23T11:18:14.123Z,0
2016-03-23T11:19:14.127Z,0
2016-03-23T11:20:14.129Z,0
2016-03-23T11:21:14.117Z,0
2016-03-23T11:22:14.104Z,0
2016-03-23T11:23:14.122Z,0
2016-03-23T11:24:14.109Z,0
2016-03-23T11:25:14.127Z,0
2016-03-23T11:26:13.959Z,0
2016-03-23T11:27:13.945Z,0
2016-03-23T11:28:14.120Z,0
2016-03-23T11:29:14.123Z,0
2016-03-23T11:30:14.219Z,0
2016-03-23T11:31:14.128Z,0
2016-03-23T11:32:14.131Z,0
2016-03-23T11:33:14.118Z,0
2016-03-23T11:34:14.152Z,0
2016-03-23T11:35:14.122Z,0
2016-03-23T11:36:13.986Z,0
2016-03-23T11:37:13.988Z,0
2016-03-23T11:38:14.131Z,0
2016-03-23T11:39:13.977Z,0
2016-03-23T11:40:13.965Z,0
2016-03-23T11:41:14.123Z,0
2016-03-23T11:42:14.111Z,0
2016-03-23T11:43:14.129Z,0
2016-03-23T11:44:14.115Z,0
2016-03-23T11:45:14.337Z,0
2016-03-23T11:46:13.965Z,0
2016-03-23T11:47:13.984Z,0
2016-03-23T11:48:13.970Z,0
2016-03-23T11:49:14.160Z,0
2016-03-23T11:50:14.148Z,0
2016-03-23T11:51:13.978Z,0
2016-03-23T11:52:14.123Z,0
2016-03-23T11:53:14.109Z,0
2016-03-23T11:54:14.112Z,0
2016-03-23T11:55:14.114Z,0
2016-03-23T11:56:14.117Z,0
2016-03-23T11:57:13.229Z,0
2016-03-23T11:58:14.122Z,0
2016-03-23T11:59:14.109Z,0
2016-03-23T12:00:14.112Z,0
2016-03-23T12:01:14.130Z,0
2016-03-23T12:02:14.118Z,0
2016-03-23T12:03:14.120Z,0
2016-03-23T12:04:14.122Z,0
2016-03-23T12:05:14.125Z,0
2016-03-23T12:06:14.113Z,0
2016-03-23T12:07:14.131Z,0
2016-03-23T12:08:14.118Z,0
2016-03-23T12:09:14.105Z,0
2016-03-23T12:10:14.138Z,0
2016-03-23T12:11:14.126Z,0
2016-03-23T12:12:14.113Z,0
2016-03-23T12:13:14.116Z,0
2016-03-23T12:14:14.134Z,0
2016-03-23T12:15:14.152Z,0
2016-03-23T12:16:14.124Z,0
2016-03-23T12:17:14.143Z,0
2016-03-23T12:18:14.129Z,0
2016-03-23T12:19:13.976Z,0
2016-03-23T12:20:14.134Z,0
2016-03-23T12:21:13.997Z,0
2016-03-23T12:22:14.124Z,0
2016-03-23T12:23:14.127Z,0
2016-03-23T12:24:14.129Z,0
2016-03-23T12:25:14.132Z,0
2016-03-23T12:26:14.135Z,0
2016-03-23T12:27:14.122Z,0
2016-03-23T12:28:14.125Z,0
2016-03-23T12:29:14.112Z,0
2016-03-23T12:30:14.114Z,0
2016-03-23T12:31:14.117Z,0
2016-03-23T12:32:14.120Z,0
2016-03-23T12:33:14.122Z,0
2016-03-23T12:34:14.141Z,0
2016-03-23T12:35:14.144Z,0
2016-03-23T12:36:13.975Z,0
2016-03-23T12:37:14.133Z,0
2016-03-23T12:38:14.152Z,0
2016-03-23T12:39:14.139Z,0
2016-03-23T12:40:14.126Z,0
2016-03-23T12:41:14.144Z,0
2016-03-23T12:42:14.115Z,0
2016-03-23T12:43:14.118Z,0
2016-03-23T12:44:14.121Z,0
2016-03-23T12:45:14.123Z,0
2016-03-23T12:46:14.126Z,0
2016-03-23T12:47:14.113Z,0
2016-03-23T12:48:14.115Z,0
2016-03-23T12:49:14.134Z,0
2016-03-23T12:50:14.137Z,0
2016-03-23T12:51:14.123Z,0
2016-03-23T12:52:14.142Z,0
2016-03-23T12:53:14.130Z,45
2016-03-23T12:54:14.117Z,45
2016-03-23T12:55:14.151Z,45
2016-03-23T12:56:14.137Z,45
2016-03-23T12:57:13.968Z,45
2016-03-23T12:58:14.127Z,45
2016-03-23T12:59:14.114Z,50
2016-03-23T13:00:14.117Z,50
2016-03-23T13:01:14.120Z,55
2016-03-23T13:02:14.138Z,60
2016-03-23T13:03:14.125Z,60
2016-03-23T13:04:14.128Z,60
2016-03-23T13:05:14.130Z,60
2016-03-23T13:06:14.117Z,65
2016-03-23T13:07:14.120Z,65
2016-03-23T13:08:14.122Z,65
2016-03-23T13:09:14.126Z,65
2016-03-23T13:10:14.128Z,65
2016-03-23T13:11:14.115Z,60
2016-03-23T13:12:14.133Z,60
2016-03-23T13:13:14.136Z,60
2016-03-23T13:14:14.124Z,60
2016-03-23T13:15:14.126Z,60
2016-03-23T13:16:14.129Z,60
2016-03-23T13:17:14.147Z,60
2016-03-23T13:18:14.134Z,60
2016-03-23T13:19:14.122Z,60
2016-03-23T13:20:14.124Z,65
2016-03-23T13:21:14.126Z,65
2016-03-23T13:22:14.130Z,65
2016-03-23T13:23:14.132Z,65
2016-03-23T13:24:14.119Z,60
2016-03-23T13:25:14.106Z,60
2016-03-23T13:26:14.125Z,60
2016-03-23T13:27:14.127Z,60
2016-03-23T13:28:14.131Z,60
2016-03-23T13:29:14.148Z,65
2016-03-23T13:30:14.136Z,65
2016-03-23T13:31:14.122Z,70
2016-03-23T13:32:14.141Z,70
2016-03-23T13:33:14.127Z,75
2016-03-23T13:34:14.130Z,80
2016-03-23T13:35:14.133Z,85
2016-03-23T13:36:14.136Z,85
2016-03-23T13:37:14.139Z,90
2016-03-23T13:38:14.141Z,95
2016-03-23T13:39:14.128Z,100
2016-03-23T13:40:14.146Z,100
2016-03-23T13:41:14.134Z,105
2016-03-23T13:42:14.121Z,105
2016-03-23T13:43:14.138Z,105
2016-03-23T13:44:14.127Z,105
2016-03-23T13:45:14.129Z,105
2016-03-23T13:46:14.132Z,105
2016-03-23T13:47:14.150Z,110
2016-03-23T13:48:14.121Z,110
2016-03-23T13:49:14.139Z,110
2016-03-23T13:50:14.143Z,110
2016-03-23T13:51:13.395Z,110
2016-03-23T13:52:14.132Z,110
2016-03-23T13:53:14.134Z,110
2016-03-23T13:54:14.153Z,110
2016-03-23T13:55:14.140Z,110
2016-03-23T13:56:14.143Z,110
2016-03-23T13:57:14.161Z,110
2016-03-23T13:58:14.148Z,105
2016-03-23T13:59:14.167Z,105
2016-03-23T14:00:14.154Z,105
2016-03-23T14:01:14.140Z,100
2016-03-23T14:02:14.158Z,100
2016-03-23T14:03:14.162Z,95
2016-03-23T14:04:14.148Z,90
2016-03-23T14:05:14.151Z,100
2016-03-23T14:06:14.154Z,100
2016-03-23T14:07:14.156Z,95
2016-03-23T14:08:14.144Z,90
2016-03-23T14:09:14.162Z,90
2016-03-23T14:10:14.133Z,90
2016-03-23T14:11:14.136Z,85
2016-03-23T14:12:14.154Z,85
2016-03-23T14:13:14.158Z,85
2016-03-23T14:14:14.144Z,85
2016-03-23T14:15:14.147Z,85
2016-03-23T14:16:14.134Z,85
2016-03-23T14:17:14.152Z,85
2016-03-23T14:18:14.171Z,85
2016-03-23T14:19:14.158Z,85
2016-03-23T14:20:14.160Z,85
2016-03-23T14:21:14.162Z,90
2016-03-23T14:22:14.145Z,90
2016-03-23T14:23:14.112Z,90
2016-03-23T14:24:14.110Z,90
2016-03-23T14:25:14.094Z,90
2016-03-23T14:26:14.076Z,85
2016-03-23T14:27:14.064Z,85
2016-03-23T14:28:14.043Z,85
2016-03-23T14:29:14.055Z,85
2016-03-23T14:30:14.034Z,85
2016-03-23T14:31:14.248Z,40
2016-03-23T14:32:14.042Z,80
2016-03-23T14:33:14.042Z,80
2016-03-23T14:34:14.042Z,75
2016-03-23T14:35:14.026Z,75
2016-03-23T14:36:14.042Z,75
2016-03-23T14:37:14.027Z,75
2016-03-23T14:38:14.029Z,75
2016-03-23T14:39:14.014Z,75
2016-03-23T14:40:14.049Z,70
2016-03-23T14:41:14.034Z,70